Airfield :
LOGIN :

Register | Disclaimer

   EN    FR    IT 

 










Legend :    VFR   Marginal VFR   IFR   Intensive IFR   Very Intensive IFR
Visi :
Ceiling :
>= 8 km
>= 3000ft
5 to 8 km
1000 to 3000 ft
1500m to 5 km
500 to 1000 ft
800 to 1500m
200 to 500 ft
< 800m
< 200 ft
Symbols :   Thunderstorms  Fog  Heavy snow  Heavy precipitations  Wind > 20 kt
SIGMETs :     Misc.  Thunderstorms  Icing  Turbulence  Mountain Waves  Volcanic Ashes






- Airport Elevation : 16 ft
- IATA code : AAE


DABB - Annaba-Rabah Bitat

CURRENT METAR :
  • 300430Z 24014KT 6000 -RA FEW020 FEW026CB BKN033 10/08 Q1011

EXPIRED METARs :
  • 300400Z 24017KT 6000 -RA FEW020 FEW026CB BKN033 10/08 Q1011
  • 300330Z 23012G22KT 8000 -RA FEW020 FEW026CB BKN033 10/08 Q1012
  • 300230Z 23016KT 8000 FEW020 FEW026CB SCT033 10/08 Q1012
  • 300200Z 22014KT 8000 FEW020 FEW026CB BKN033 10/08 Q1012

TAF TAF DABB
Valid from the 30 at 00:00 until the 01 at 00:00 UTC


292300Z 3000/3024 27009KT 6000 -RA FEW023TCU BKN033
TEMPO 3000/3012 33014KT 5000 RA FEW020CB
PROB40
TEMPO 3001/3010 34015G30KT 4000 -TSRA SCT020CB
TEMPO 3012/3020 35015KT 5000 SHRA SCT023CB



MET'MAP, your aeronautical weather chart ! - Copyright ORBIFLY December 2007 - Disclaimer

ORBIFLY MET'MAP TEAM :

Programming & Development : Alexandra Zaïnal
Original concept : Baudouin d'Aumeries
Technical & hardware support : Manuel Goepfert
Assistance : Marc-Olivier Méhu




SOURCES & CREDITS :

   NOAA